createdAt,value
2022-11-24T00:02:24.585Z,100174.09
2022-11-24T00:04:51.311Z,100168.31
2022-11-24T00:07:17.804Z,100159.16
2022-11-24T00:09:44.391Z,100156.28
2022-11-24T00:12:10.864Z,100173.22
2022-11-24T00:14:37.351Z,100195.41
2022-11-24T00:17:03.903Z,100180.13
2022-11-24T00:19:30.488Z,100190.28
2022-11-24T00:21:57.009Z,100200.97
2022-11-24T00:24:23.493Z,100184.69
2022-11-24T00:26:50.098Z,100198.94
2022-11-24T00:29:16.652Z,100182.84
2022-11-24T00:31:43.169Z,100187.91
2022-11-24T00:34:14.270Z,100190.31
2022-11-24T00:36:41.444Z,100172.16
2022-11-24T00:39:11.725Z,100177.97
2022-11-24T00:41:38.629Z,100189.16
2022-11-24T00:44:05.544Z,100188.97
2022-11-24T00:46:32.306Z,100166.56
2022-11-24T00:49:00.321Z,100192.69
2022-11-24T00:51:28.041Z,100206.75
2022-11-24T00:53:55.476Z,100222.00
2022-11-24T00:56:22.400Z,100209.25
2022-11-24T00:58:48.890Z,100193.84
2022-11-24T01:01:18.204Z,100203.84
2022-11-24T01:03:46.709Z,100194.19
2022-11-24T01:06:16.421Z,100232.84
2022-11-24T01:08:43.347Z,100241.00
2022-11-24T01:11:24.792Z,100199.91
2022-11-24T01:13:59.533Z,100222.13
2022-11-24T01:16:31.896Z,100212.31
2022-11-24T01:18:59.763Z,100216.88
2022-11-24T01:21:26.381Z,100208.38
2022-11-24T01:23:53.187Z,100217.72
2022-11-24T01:26:21.514Z,100234.84
2022-11-24T01:28:55.620Z,100230.44
2022-11-24T01:31:22.661Z,100243.66
2022-11-24T01:33:49.195Z,100239.78
2022-11-24T01:36:15.714Z,100236.25
2022-11-24T01:38:42.206Z,100239.28
2022-11-24T01:41:15.909Z,100234.03
2022-11-24T01:43:43.595Z,100257.94
2022-11-24T01:46:26.230Z,100254.06
2022-11-24T01:49:12.536Z,100270.84
2022-11-24T01:51:50.575Z,100265.94
2022-11-24T01:54:22.797Z,100259.16
2022-11-24T01:56:52.164Z,100257.66
2022-11-24T01:59:19.914Z,100250.53
2022-11-24T02:01:47.185Z,100255.28
2022-11-24T02:04:16.324Z,100250.03
2022-11-24T02:06:43.969Z,100261.72
2022-11-24T02:09:34.250Z,100287.63
2022-11-24T02:12:01.553Z,100266.81
2022-11-24T02:14:28.472Z,100256.09
2022-11-24T02:16:55.056Z,100256.78
2022-11-24T02:19:39.480Z,100252.38
2022-11-24T02:22:16.377Z,100242.16
2022-11-24T02:24:52.663Z,100244.81
2022-11-24T02:27:19.509Z,100265.84
2022-11-24T02:29:46.211Z,100242.16
2022-11-24T02:32:12.764Z,100225.78
2022-11-24T02:34:39.311Z,100246.41
2022-11-24T02:37:05.827Z,100247.88
2022-11-24T02:39:34.047Z,100227.88
2022-11-24T02:42:05.838Z,100235.47
2022-11-24T02:44:42.132Z,100250.78
2022-11-24T02:47:10.928Z,100253.25
2022-11-24T02:49:37.805Z,100267.91
2022-11-24T02:52:05.338Z,100281.19
2022-11-24T02:54:32.594Z,100275.44
2022-11-24T02:56:59.419Z,100284.94
2022-11-24T02:59:26.166Z,100282.75
2022-11-24T03:01:52.836Z,100279.72
2022-11-24T03:04:19.319Z,100280.22
2022-11-24T03:06:45.818Z,100288.72
2022-11-24T03:09:12.330Z,100316.34
2022-11-24T03:11:39.283Z,100301.94
2022-11-24T03:14:06.587Z,100305.50
2022-11-24T03:16:33.410Z,100319.22
2022-11-24T03:19:00.240Z,100335.34
2022-11-24T03:21:26.746Z,100336.50
2022-11-24T03:23:53.341Z,100335.66
2022-11-24T03:26:21.919Z,100319.03
2022-11-24T03:28:48.414Z,100345.47
2022-11-24T03:31:15.141Z,100346.50
2022-11-24T03:33:41.643Z,100327.16
2022-11-24T03:36:08.717Z,100347.50
2022-11-24T03:38:35.328Z,100382.78
2022-11-24T03:41:01.866Z,100349.56
2022-11-24T03:43:28.370Z,100372.28
2022-11-24T03:45:54.848Z,100381.78
2022-11-24T03:48:21.623Z,100379.91
2022-11-24T03:50:59.220Z,100398.03
2022-11-24T03:53:28.238Z,100399.69
2022-11-24T03:55:54.886Z,100405.22
2022-11-24T03:58:21.488Z,100401.31
2022-11-24T04:00:52.748Z,100404.34
2022-11-24T04:03:19.811Z,100424.28
2022-11-24T04:05:47.028Z,100431.50
2022-11-24T04:08:14.088Z,100423.69
2022-11-24T04:10:40.633Z,100445.00
2022-11-24T04:13:17.972Z,100451.44
2022-11-24T04:15:44.718Z,100443.47
2022-11-24T04:18:12.309Z,100447.16
2022-11-24T04:20:39.283Z,100453.56
2022-11-24T04:23:05.982Z,100469.59
2022-11-24T04:25:32.655Z,100459.41
2022-11-24T04:27:59.287Z,100474.25
2022-11-24T04:30:27.333Z,100462.91
2022-11-24T04:32:53.939Z,100463.75
2022-11-24T04:35:21.107Z,100479.16
2022-11-24T04:37:47.627Z,100474.91
2022-11-24T04:40:14.566Z,100483.16
2022-11-24T04:42:41.206Z,100477.63
2022-11-24T04:45:08.384Z,100483.03
2022-11-24T04:47:35.009Z,100484.88
2022-11-24T04:50:01.706Z,100493.16
2022-11-24T04:52:29.961Z,100494.69
2022-11-24T04:54:56.442Z,100497.09
2022-11-24T04:57:25.313Z,100502.72
2022-11-24T04:59:52.924Z,100502.38
2022-11-24T05:02:20.316Z,100504.63
2022-11-24T05:04:46.913Z,100513.81
2022-11-24T05:07:18.291Z,100514.72
2022-11-24T05:10:07.360Z,100530.47
2022-11-24T05:12:33.856Z,100524.56
2022-11-24T05:15:01.701Z,100536.94
2022-11-24T05:17:30.727Z,100533.91
2022-11-24T05:19:57.796Z,100548.31
2022-11-24T05:22:24.464Z,100550.16
2022-11-24T05:24:51.274Z,100562.69
2022-11-24T05:27:17.770Z,100551.38
2022-11-24T05:29:44.555Z,100561.38
2022-11-24T05:32:11.209Z,100555.59
2022-11-24T05:34:37.776Z,100559.69
2022-11-24T05:37:04.354Z,100563.09
2022-11-24T05:39:35.738Z,100560.69
2022-11-24T05:42:30.408Z,100556.59
2022-11-24T05:44:57.544Z,100567.09
2022-11-24T05:47:24.344Z,100551.88
2022-11-24T05:49:50.935Z,100571.13
2022-11-24T05:52:17.526Z,100564.88
2022-11-24T05:54:44.029Z,100572.13
2022-11-24T05:57:10.573Z,100580.44
2022-11-24T05:59:37.069Z,100580.91
2022-11-24T06:02:03.733Z,100597.84
2022-11-24T06:04:30.288Z,100593.97
2022-11-24T06:06:56.831Z,100606.03
2022-11-24T06:09:23.313Z,100597.72
2022-11-24T06:11:49.942Z,100606.06
2022-11-24T06:14:16.545Z,100607.94
2022-11-24T06:16:43.125Z,100617.47
2022-11-24T06:19:10.872Z,100620.69
2022-11-24T06:21:37.474Z,100619.84
2022-11-24T06:24:04.599Z,100623.78
2022-11-24T06:26:31.091Z,100627.19
2022-11-24T06:28:57.656Z,100635.47
2022-11-24T06:31:24.235Z,100636.00
2022-11-24T06:33:50.866Z,100635.81
2022-11-24T06:36:17.490Z,100646.19
2022-11-24T06:38:43.970Z,100657.72
2022-11-24T06:41:13.962Z,100659.41
2022-11-24T06:43:40.642Z,100668.25
2022-11-24T06:46:07.453Z,100654.38
2022-11-24T06:48:34.276Z,100651.19
2022-11-24T06:51:02.526Z,100683.00
2022-11-24T06:53:33.293Z,100672.00
2022-11-24T06:56:01.055Z,100673.72
2022-11-24T06:58:27.783Z,100682.31
2022-11-24T07:00:54.512Z,100681.47
2022-11-24T07:03:21.664Z,100695.03
2022-11-24T07:05:48.356Z,100699.81
2022-11-24T07:08:17.926Z,100708.94
2022-11-24T07:10:44.815Z,100716.75
2022-11-24T07:13:11.325Z,100710.34
2022-11-24T07:15:37.857Z,100726.41
2022-11-24T07:18:04.521Z,100725.59
2022-11-24T07:20:31.020Z,100726.75
2022-11-24T07:22:58.005Z,100740.44
2022-11-24T07:25:25.337Z,100746.03
2022-11-24T07:27:59.311Z,100750.59
2022-11-24T07:30:27.277Z,100748.06
2022-11-24T07:33:03.932Z,100752.88
2022-11-24T07:35:30.840Z,100756.56
2022-11-24T07:37:58.493Z,100761.53
2022-11-24T07:40:26.959Z,100765.47
2022-11-24T07:42:54.060Z,100761.25
2022-11-24T07:45:20.582Z,100775.03
2022-11-24T07:47:47.123Z,100781.38
2022-11-24T07:50:13.749Z,100788.81
2022-11-24T07:52:40.354Z,100780.91
2022-11-24T07:55:07.936Z,100782.25
2022-11-24T07:57:34.725Z,100800.13
2022-11-24T08:00:01.350Z,100795.81
2022-11-24T08:02:27.880Z,100795.09
2022-11-24T08:04:54.432Z,100799.94
2022-11-24T08:07:20.922Z,100805.34
2022-11-24T08:09:47.472Z,100806.13
2022-11-24T08:12:14.068Z,100798.31
2022-11-24T08:14:40.535Z,100807.22
2022-11-24T08:17:07.131Z,100796.22
2022-11-24T08:19:34.816Z,100795.88
2022-11-24T08:22:01.326Z,100789.75
2022-11-24T08:24:27.805Z,100779.25
2022-11-24T08:26:54.584Z,100792.50
2022-11-24T08:29:21.124Z,100798.28
2022-11-24T08:31:47.633Z,100802.19
2022-11-24T08:34:14.116Z,100808.78
2022-11-24T08:36:40.615Z,100818.16
2022-11-24T08:39:07.131Z,100818.00
2022-11-24T08:41:33.736Z,100822.41
2022-11-24T08:44:00.269Z,100827.28
2022-11-24T08:46:26.783Z,100811.28
2022-11-24T08:48:54.546Z,100826.38
2022-11-24T08:51:23.795Z,100824.66
2022-11-24T08:53:54.209Z,100833.31
2022-11-24T08:56:20.705Z,100832.16
2022-11-24T08:58:47.208Z,100828.50
2022-11-24T09:01:15.372Z,100827.88
2022-11-24T09:03:48.599Z,100847.72
2022-11-24T09:06:18.310Z,100844.97
2022-11-24T09:08:44.833Z,100844.31
2022-11-24T09:11:13.376Z,100849.84
2022-11-24T09:13:40.417Z,100848.13
2022-11-24T09:16:09.714Z,100860.34
2022-11-24T09:18:36.497Z,100875.19
2022-11-24T09:21:11.377Z,100869.06
2022-11-24T09:23:38.258Z,100881.31
2022-11-24T09:26:11.019Z,100882.69
2022-11-24T09:28:37.875Z,100896.88
2022-11-24T09:31:06.023Z,100890.81
2022-11-24T09:33:33.237Z,100904.56
2022-11-24T09:36:00.119Z,100893.41
2022-11-24T09:38:27.315Z,100892.97
2022-11-24T09:40:55.554Z,100902.63
2022-11-24T09:43:36.469Z,100910.22
2022-11-24T09:46:10.672Z,100909.41
2022-11-24T09:48:40.923Z,100914.19
2022-11-24T09:51:12.464Z,100915.22
2022-11-24T09:54:08.364Z,100934.31
2022-11-24T09:56:36.983Z,100949.25
2022-11-24T09:59:16.308Z,100936.66
2022-11-24T10:01:45.021Z,100953.81
2022-11-24T10:04:29.898Z,100948.78
2022-11-24T10:07:11.446Z,100935.16
2022-11-24T10:09:56.482Z,100937.75
2022-11-24T10:12:23.006Z,100941.03
2022-11-24T10:15:16.586Z,100938.81
2022-11-24T10:17:43.602Z,100939.59
2022-11-24T10:20:22.574Z,100936.53
2022-11-24T10:23:04.247Z,100942.47
2022-11-24T10:25:40.322Z,100936.69
2022-11-24T10:28:11.982Z,100940.47
2022-11-24T10:30:38.632Z,100949.91
2022-11-24T10:33:16.462Z,100946.03
2022-11-24T10:35:48.930Z,100946.97
2022-11-24T10:38:21.634Z,100937.81
2022-11-24T10:40:59.609Z,100955.84
2022-11-24T10:43:28.169Z,100949.81
2022-11-24T10:45:58.767Z,100959.50
2022-11-24T10:48:26.683Z,100948.84
2022-11-24T10:50:54.936Z,100943.38
2022-11-24T10:53:27.989Z,100944.16
2022-11-24T10:55:54.456Z,100957.16
2022-11-24T10:58:37.606Z,100942.72
2022-11-24T11:01:28.680Z,100942.47
2022-11-24T11:03:57.870Z,100946.09
2022-11-24T11:06:27.083Z,100947.25
2022-11-24T11:09:13.506Z,100943.69
2022-11-24T11:11:41.579Z,100952.34
2022-11-24T11:14:10.604Z,100958.66
2022-11-24T11:16:38.764Z,100945.19
2022-11-24T11:19:47.806Z,100954.59
2022-11-24T11:22:16.854Z,100948.25
2022-11-24T11:24:45.251Z,100963.06
2022-11-24T11:27:18.913Z,100947.31
2022-11-24T11:35:19.269Z,100960.25
2022-11-24T11:37:47.253Z,100953.44
2022-11-24T11:40:17.963Z,100947.63
2022-11-24T11:43:02.549Z,100963.09
2022-11-24T11:45:43.366Z,100960.53
2022-11-24T11:48:27.657Z,100945.94
2022-11-24T11:51:22.361Z,100942.31
2022-11-24T11:54:10.407Z,100940.13
2022-11-24T11:56:46.083Z,100943.22
2022-11-24T11:59:30.977Z,100965.88
2022-11-24T12:02:32.765Z,100948.88
2022-11-24T12:05:20.472Z,100964.56
2022-11-24T12:08:11.655Z,100974.19
2022-11-24T12:11:09.252Z,100949.84
2022-11-24T12:13:54.043Z,100961.91
2022-11-24T12:16:48.043Z,100943.41
2022-11-24T12:19:36.757Z,100959.84
2022-11-24T12:22:18.773Z,100955.28
2022-11-24T12:25:14.411Z,100956.34
2022-11-24T12:27:50.626Z,100963.25
2022-11-24T12:30:18.444Z,100967.28
2022-11-24T12:32:47.931Z,100982.44
2022-11-24T12:35:14.652Z,100976.34
2022-11-24T12:38:11.419Z,100964.72
2022-11-24T12:40:46.446Z,100987.56
2022-11-24T12:43:20.082Z,100973.69
2022-11-24T12:45:55.867Z,100987.06
2022-11-24T12:48:45.750Z,100991.00
2022-11-24T12:51:20.990Z,100978.56
2022-11-24T12:53:48.069Z,100974.38
2022-11-24T12:56:16.372Z,100974.81
2022-11-24T12:58:51.902Z,100990.28
2022-11-24T13:01:39.311Z,100988.28
2022-11-24T13:04:29.501Z,100962.84
2022-11-24T13:07:21.471Z,100964.19
2022-11-24T13:10:40.436Z,100961.50
2022-11-24T13:13:12.747Z,100953.69
2022-11-24T13:16:28.561Z,100961.59
2022-11-24T13:18:47.382Z,100967.91
2022-11-24T13:21:42.893Z,100948.38
2022-11-24T13:24:19.498Z,100953.22
2022-11-24T13:26:52.418Z,100950.97
2022-11-24T13:29:28.194Z,100942.84
2022-11-24T13:32:04.551Z,100942.00
2022-11-24T13:34:40.391Z,100944.66
2022-11-24T13:37:31.167Z,100949.94
2022-11-24T13:40:03.782Z,100935.88
2022-11-24T13:42:42.403Z,100945.38
2022-11-24T13:45:39.758Z,100940.47
2022-11-24T13:48:18.889Z,100927.38
2022-11-24T13:50:51.979Z,100939.28
2022-11-24T13:53:40.450Z,100928.66
2022-11-24T13:56:22.688Z,100930.84
2022-11-24T13:58:58.035Z,100926.44
2022-11-24T14:01:28.427Z,100921.41
2022-11-24T14:04:32.319Z,100921.28
2022-11-24T14:07:07.815Z,100914.66
2022-11-24T14:09:44.251Z,100927.31
2022-11-24T14:12:17.747Z,100926.22
2022-11-24T14:14:46.055Z,100930.97
2022-11-24T14:17:22.689Z,100922.22
2022-11-24T14:19:51.381Z,100929.97
2022-11-24T14:22:19.641Z,100925.16
2022-11-24T14:24:52.275Z,100924.91
2022-11-24T14:27:30.816Z,100932.91
2022-11-24T14:30:00.096Z,100924.59
2022-11-24T14:32:26.984Z,100924.13
2022-11-24T14:34:54.442Z,100916.16
2022-11-24T14:37:21.357Z,100918.16
2022-11-24T14:39:47.902Z,100914.41
2022-11-24T14:42:27.804Z,100918.00
2022-11-24T14:44:54.308Z,100917.13
2022-11-24T14:47:32.621Z,100917.09
2022-11-24T14:50:29.076Z,100911.28
2022-11-24T14:52:59.043Z,100908.22
2022-11-24T14:55:30.410Z,100906.38
2022-11-24T14:57:57.865Z,100906.78
2022-11-24T15:00:24.298Z,100901.56
2022-11-24T15:03:16.072Z,100904.28
2022-11-24T15:05:56.287Z,100902.78
2022-11-24T15:08:25.025Z,100913.34
2022-11-24T15:10:58.086Z,100905.50
2022-11-24T15:13:25.147Z,100900.97
2022-11-24T15:16:03.611Z,100914.91
2022-11-24T15:18:41.090Z,100906.22
2022-11-24T15:21:07.876Z,100904.50
2022-11-24T15:23:35.192Z,100905.69
2022-11-24T15:26:01.649Z,100899.94
2022-11-24T15:28:29.675Z,100893.47
2022-11-24T15:31:02.806Z,100880.56
2022-11-24T15:33:29.887Z,100892.97
2022-11-24T15:35:56.880Z,100894.69
2022-11-24T15:38:23.716Z,100897.38
2022-11-24T15:40:55.060Z,100895.53
2022-11-24T15:43:31.028Z,100892.81
2022-11-24T15:45:58.677Z,100898.25
2022-11-24T15:48:25.581Z,100886.84
2022-11-24T15:50:53.123Z,100907.59
2022-11-24T15:53:25.735Z,100906.75
2022-11-24T15:55:52.812Z,100903.16
2022-11-24T15:58:19.648Z,100905.72
2022-11-24T16:00:46.400Z,100894.84
2022-11-24T16:03:44.941Z,100915.06
2022-11-24T16:05:59.591Z,100901.47
2022-11-24T16:08:26.097Z,100923.56
2022-11-24T16:10:52.589Z,100909.31
2022-11-24T16:13:19.190Z,100909.97
2022-11-24T16:15:45.975Z,100916.41
2022-11-24T16:18:13.936Z,100904.53
2022-11-24T16:20:40.530Z,100904.50
2022-11-24T16:23:07.069Z,100902.31
2022-11-24T16:25:33.653Z,100900.28
2022-11-24T16:28:00.120Z,100915.75
2022-11-24T16:30:26.633Z,100905.38
2022-11-24T16:32:53.260Z,100923.75
2022-11-24T16:35:20.098Z,100927.81
2022-11-24T16:37:46.690Z,100926.28
2022-11-24T16:40:13.375Z,100911.16
2022-11-24T16:42:39.866Z,100932.41
2022-11-24T16:45:06.955Z,100915.06
2022-11-24T16:47:39.671Z,100927.31
2022-11-24T16:50:07.762Z,100921.34
2022-11-24T16:52:34.246Z,100925.09
2022-11-24T16:55:01.661Z,100918.97
2022-11-24T16:57:28.206Z,100917.25
2022-11-24T16:59:54.688Z,100931.88
2022-11-24T17:02:21.270Z,100921.00
2022-11-24T17:04:49.755Z,100898.88
2022-11-24T17:07:16.350Z,100905.88
2022-11-24T17:09:42.878Z,100899.56
2022-11-24T17:12:09.364Z,100888.88
2022-11-24T17:14:36.955Z,100903.28
2022-11-24T17:17:06.644Z,100892.59
2022-11-24T17:19:33.200Z,100905.00
2022-11-24T17:21:59.903Z,100912.97
2022-11-24T17:24:26.547Z,100895.47
2022-11-24T17:26:53.290Z,100912.47
2022-11-24T17:29:19.912Z,100896.16
2022-11-24T17:31:46.669Z,100879.69
2022-11-24T17:34:13.314Z,100879.00
2022-11-24T17:36:41.417Z,100872.72
2022-11-24T17:39:08.039Z,100886.31
2022-11-24T17:41:34.835Z,100867.09
2022-11-24T17:44:01.479Z,100887.16
2022-11-24T17:46:29.177Z,100890.22
2022-11-24T17:48:56.050Z,100882.72
2022-11-24T17:51:24.177Z,100880.53
2022-11-24T17:53:52.254Z,100884.44
2022-11-24T17:56:22.914Z,100888.31
2022-11-24T17:58:52.234Z,100887.16
2022-11-24T18:01:19.307Z,100886.66
2022-11-24T18:03:48.988Z,100888.69
2022-11-24T18:06:19.799Z,100876.94
2022-11-24T18:08:47.049Z,100874.06
2022-11-24T18:11:32.040Z,100857.06
2022-11-24T18:14:02.920Z,100895.47
2022-11-24T18:16:31.590Z,100884.25
2022-11-24T18:19:08.285Z,100882.56
2022-11-24T18:21:35.140Z,100864.03
2022-11-24T18:24:01.787Z,100871.50
2022-11-24T18:26:28.672Z,100873.72
2022-11-24T18:28:55.251Z,100888.13
2022-11-24T18:31:22.491Z,100860.44
2022-11-24T18:33:49.112Z,100867.91
2022-11-24T18:36:18.947Z,100838.69
2022-11-24T18:38:46.015Z,100851.25
2022-11-24T18:41:14.003Z,100856.84
2022-11-24T18:43:40.847Z,100853.13
2022-11-24T18:46:15.320Z,100853.81
2022-11-24T18:48:42.644Z,100860.63
2022-11-24T18:51:14.294Z,100865.88
2022-11-24T18:53:42.437Z,100862.97
2022-11-24T18:56:15.744Z,100855.81
2022-11-24T18:58:42.580Z,100862.44
2022-11-24T19:01:17.359Z,100860.94
2022-11-24T19:03:49.508Z,100858.72
2022-11-24T19:06:33.534Z,100852.41
2022-11-24T19:09:02.640Z,100848.50
2022-11-24T19:11:37.506Z,100856.66
2022-11-24T19:14:05.343Z,100849.50
2022-11-24T19:16:32.063Z,100867.38
2022-11-24T19:19:00.169Z,100863.28
2022-11-24T19:21:27.842Z,100853.44
2022-11-24T19:23:55.776Z,100853.59
2022-11-24T19:26:24.321Z,100870.22
2022-11-24T19:28:50.864Z,100851.53
2022-11-24T19:31:20.190Z,100856.31
2022-11-24T19:33:47.049Z,100846.16
2022-11-24T19:36:19.120Z,100850.38
2022-11-24T19:38:56.162Z,100851.06
2022-11-24T19:41:25.193Z,100837.63
2022-11-24T19:43:54.784Z,100832.38
2022-11-24T19:46:22.951Z,100826.75
2022-11-24T19:48:50.860Z,100841.22
2022-11-24T19:51:22.446Z,100824.91
2022-11-24T19:53:48.949Z,100818.78
2022-11-24T19:56:18.379Z,100829.66
2022-11-24T19:58:45.581Z,100831.72
2022-11-24T20:01:14.423Z,100837.81
2022-11-24T20:03:41.722Z,100824.09
2022-11-24T20:06:10.120Z,100829.34
2022-11-24T20:08:37.510Z,100853.16
2022-11-24T20:11:12.343Z,100839.88
2022-11-24T20:13:40.322Z,100827.81
2022-11-24T20:16:12.702Z,100842.59
2022-11-24T20:18:42.391Z,100819.69
2022-11-24T20:21:10.504Z,100825.47
2022-11-24T20:23:37.006Z,100831.72
2022-11-24T20:26:08.946Z,100810.16
2022-11-24T20:28:35.486Z,100832.59
2022-11-24T20:31:07.540Z,100846.38
2022-11-24T20:33:35.517Z,100839.75
2022-11-24T20:36:10.672Z,100837.53
2022-11-24T20:38:38.322Z,100837.72
2022-11-24T20:41:09.603Z,100843.00
2022-11-24T20:43:37.124Z,100842.81
2022-11-24T20:46:12.148Z,100839.06
2022-11-24T20:48:38.922Z,100846.53
2022-11-24T20:51:10.496Z,100849.94
2022-11-24T20:53:37.358Z,100838.91
2022-11-24T20:56:06.496Z,100847.22
2022-11-24T20:58:34.628Z,100841.44
2022-11-24T21:01:11.540Z,100839.22
2022-11-24T21:03:43.088Z,100846.03
2022-11-24T21:06:11.201Z,100835.84
2022-11-24T21:08:39.038Z,100833.44
2022-11-24T21:11:06.948Z,100833.09
2022-11-24T21:13:34.734Z,100845.31
2022-11-24T21:16:06.613Z,100851.63
2022-11-24T21:18:33.831Z,100841.25
2022-11-24T21:21:00.365Z,100834.78
2022-11-24T21:23:26.883Z,100843.25
2022-11-24T21:25:53.360Z,100826.94
2022-11-24T21:28:19.846Z,100848.84
2022-11-24T21:30:46.321Z,100846.13
2022-11-24T21:33:12.864Z,100822.31
2022-11-24T21:35:39.502Z,100821.97
2022-11-24T21:38:06.139Z,100834.56
2022-11-24T21:40:32.634Z,100843.94
2022-11-24T21:42:59.721Z,100833.22
2022-11-24T21:45:29.138Z,100815.16
2022-11-24T21:48:02.119Z,100835.56
2022-11-24T21:50:28.726Z,100832.00
2022-11-24T21:52:59.269Z,100832.00
2022-11-24T21:55:28.650Z,100838.97
2022-11-24T21:57:55.128Z,100826.69
2022-11-24T22:00:21.716Z,100829.09
2022-11-24T22:02:48.351Z,100818.19
2022-11-24T22:05:14.879Z,100833.31
2022-11-24T22:07:41.548Z,100833.22
2022-11-24T22:10:08.766Z,100843.03
2022-11-24T22:12:35.266Z,100828.09
2022-11-24T22:15:01.787Z,100831.34
2022-11-24T22:17:30.828Z,100819.25
2022-11-24T22:19:57.326Z,100828.63
2022-11-24T22:22:23.807Z,100831.00
2022-11-24T22:24:50.341Z,100835.09
2022-11-24T22:27:16.848Z,100824.41
2022-11-24T22:29:43.312Z,100852.66
2022-11-24T22:32:09.771Z,100853.00
2022-11-24T22:34:36.305Z,100848.59
2022-11-24T22:37:03.000Z,100848.44
2022-11-24T22:39:29.506Z,100842.13
2022-11-24T22:41:55.994Z,100838.91
2022-11-24T22:44:22.482Z,100862.31
2022-11-24T22:46:48.970Z,100830.38
2022-11-24T22:49:15.399Z,100845.31
2022-11-24T22:51:41.891Z,100848.88
2022-11-24T22:54:11.751Z,100851.09
2022-11-24T22:56:38.427Z,100857.38
2022-11-24T22:59:05.077Z,100855.69
2022-11-24T23:01:33.627Z,100855.84
2022-11-24T23:04:00.320Z,100852.09
2022-11-24T23:06:28.663Z,100851.25
2022-11-24T23:08:55.686Z,100842.59
2022-11-24T23:11:31.676Z,100843.44
2022-11-24T23:14:01.946Z,100853.59
2022-11-24T23:16:29.237Z,100845.97
2022-11-24T23:18:56.133Z,100836.59
2022-11-24T23:21:27.567Z,100846.78
2022-11-24T23:23:54.397Z,100840.66
2022-11-24T23:26:23.569Z,100840.97
2022-11-24T23:28:50.690Z,100846.59
2022-11-24T23:31:19.577Z,100848.47
2022-11-24T23:33:46.501Z,100855.06
2022-11-24T23:36:14.255Z,100851.34
2022-11-24T23:38:41.169Z,100846.75
2022-11-24T23:41:10.877Z,100847.09
2022-11-24T23:43:39.206Z,100853.22
2022-11-24T23:46:11.612Z,100846.75
2022-11-24T23:48:38.878Z,100856.63
2022-11-24T23:51:12.375Z,100854.03
2022-11-24T23:53:39.382Z,100850.50
2022-11-24T23:56:06.212Z,100858.66
2022-11-24T23:58:33.035Z,100858.16
